Details for EasyJet at EGGP




Go Back


Latest METAR
Local Time

EGGP 211420Z 21003KT 9999 FEW028 BKN036 08/03 Q1027

21/02/2018, 15:04:24

Description
Results
EasyJet Logo
Number of Pilots based at EGGP
0 Pilots Based here
Number of EasyJet Flights Departed from EGGP
6 Flights Departed
Number of EasyJet Flights Arrived at EGGP
8 Flights Arrived
Number of EasyJet Schedules Departing from EGGP
81 Schedules
Number of EasyJet Schedules Arriving at EGGP
83 Schedules
Number of EasyJet Schedules Departing from EGGP availible today
22 Schedules Today
Number of EasyJet Schedules Arriving at EGGP availible today
24 Schedules Today
Average Landing Rate at EGGP
-256 fpm
EasyJet Average Landing Rate at EGGP
-328 fpm
Total Fuel Purchased at EGGP by EasyJet
9,022.40 kgs / 19,890.78 lbs

Pilots Based at EGGP


Pilot ID
Pilot Name
Pilot Rank
No. of Flights
No. of Flying Hours
There are no pilots assigned to this hub!   Will you be the first?
Content